Fort Stockton, TX

5:09 PM CST on February 12, 2016 (GMT -0600)
Fort Stockton RV Park | | Change Station
CLOSE
Current Station
Personal Weather Station
Location: Fort Stockton, TX
Elevation: 2910 ft
Nearby Weather Stations

Elev 2910 ft 30.89 °N, 102.80 °W | Updated 19 seconds ago

Clear
Clear
74.7 °F
Feels Like 75 °F
N
5.1
Wind Variable Wind from ENE
Gusts 7.0 mph

Today
High -- | Low -- °F
--% Chance of Precip.
Yesterday
High -- | Low -- °F
Precip. -- in
Pressure 30.12 in
Visibility 10.0 miles
Clouds Clear
Heat Index 75 °F
Dew Point 28 °F
Humidity 17%
Rainfall 0.00 in
Snow Depth Not available.
7:35 AM 6:36 PM
Waxing Crescent, 24% visible
METAR KFST 122253Z AUTO 05006KT 10SM CLR 24/M06 A3022 RMK AO2 SLP200 T02391056
Pressure 30.12 in
Visibility 10.0 miles
Clouds Clear
Heat Index 75 °F
Dew Point 28 °F
Humidity 17%
Rainfall 0.00 in
Snow Depth Not available.
7:35 AM 6:36 PM
Waxing Crescent, 24% visible
METAR KFST 122253Z AUTO 05006KT 10SM CLR 24/M06 A3022 RMK AO2 SLP200 T02391056

10-Day Weather Forecast

Almanac

Astronomy

Feb. 12, 2016 Rise Set
Actual Time
Civil Twilight
Nautical Twilight
Astronomical Twilight
Moon
Length of Visible Light
Length of Day
Tomorrow will be .
, % of the Moon is Illuminated

Today's Extremes

State Highs State Lows

Community

WunderPhotos

Upload Photos

1,892,431 photos uploaded!

WunderBlog® & News

Nearby

Air Quality

  Air Quality AQ Index Pollutant
Not available.

Snow Depth

Station Depth Elevation

Earthquake Activity

City Distance Mag. Time & Date
Minimum magnitude displayed is 2.5.

Coastal Water Temperatures

Place Temperature

Stations

Nearby Weather Stations

Station Location Temp. Windchill Dew Point Humidity Wind Precip. Elev Updated Type
                   

Watches & Warnings

There are currently no watches in effect.